sensor_id;sensor_type;location;lat;lon;timestamp;pressure;altitude;pressure_sealevel;temperature;humidity
65190;BME280;51777;53.570;9.984;2023-08-06T00:01:12;100540.88;;;16.55;100.00
65190;BME280;51777;53.570;9.984;2023-08-06T00:03:38;100535.78;;;16.68;100.00
65190;BME280;51777;53.570;9.984;2023-08-06T00:06:06;100533.16;;;16.68;100.00
65190;BME280;51777;53.570;9.984;2023-08-06T00:08:32;100524.81;;;16.58;100.00
65190;BME280;51777;53.570;9.984;2023-08-06T00:10:57;100525.06;;;16.63;100.00
65190;BME280;51777;53.570;9.984;2023-08-06T00:13:22;100519.72;;;16.71;100.00
65190;BME280;51777;53.570;9.984;2023-08-06T00:15:48;100513.31;;;16.73;100.00
65190;BME280;51777;53.570;9.984;2023-08-06T00:18:13;100516.84;;;16.66;100.00
65190;BME280;51777;53.570;9.984;2023-08-06T00:20:39;100517.66;;;16.66;100.00
65190;BME280;51777;53.570;9.984;2023-08-06T00:23:05;100513.81;;;16.62;100.00
65190;BME280;51777;53.570;9.984;2023-08-06T00:25:31;100511.28;;;16.48;100.00
65190;BME280;51777;53.570;9.984;2023-08-06T00:27:56;100512.72;;;16.50;100.00
65190;BME280;51777;53.570;9.984;2023-08-06T00:30:22;100505.16;;;16.62;100.00
65190;BME280;51777;53.570;9.984;2023-08-06T00:32:47;100507.31;;;16.52;100.00
65190;BME280;51777;53.570;9.984;2023-08-06T00:35:12;100501.09;;;16.53;100.00
65190;BME280;51777;53.570;9.984;2023-08-06T00:37:39;100496.69;;;16.53;100.00
65190;BME280;51777;53.570;9.984;2023-08-06T00:40:06;100500.91;;;16.54;100.00
65190;BME280;51777;53.570;9.984;2023-08-06T00:42:31;100499.50;;;16.52;100.00
65190;BME280;51777;53.570;9.984;2023-08-06T00:44:57;100502.75;;;16.60;100.00
65190;BME280;51777;53.570;9.984;2023-08-06T00:47:23;100506.84;;;16.69;100.00
65190;BME280;51777;53.570;9.984;2023-08-06T00:49:49;100500.88;;;16.76;100.00
65190;BME280;51777;53.570;9.984;2023-08-06T00:52:14;100500.50;;;16.79;100.00
65190;BME280;51777;53.570;9.984;2023-08-06T00:54:40;100494.84;;;16.75;100.00
65190;BME280;51777;53.570;9.984;2023-08-06T00:57:07;100488.38;;;16.71;100.00
65190;BME280;51777;53.570;9.984;2023-08-06T00:59:32;100488.00;;;16.74;100.00
65190;BME280;51777;53.570;9.984;2023-08-06T01:01:58;100483.78;;;16.73;100.00
65190;BME280;51777;53.570;9.984;2023-08-06T01:04:23;100478.75;;;16.71;100.00
65190;BME280;51777;53.570;9.984;2023-08-06T01:06:59;100469.56;;;16.76;100.00
65190;BME280;51777;53.570;9.984;2023-08-06T01:12:35;100469.16;;;16.51;100.00
65190;BME280;51777;53.570;9.984;2023-08-06T01:15:17;100464.88;;;16.43;100.00
65190;BME280;51777;53.570;9.984;2023-08-06T01:17:45;100469.16;;;16.51;100.00
65190;BME280;51777;53.570;9.984;2023-08-06T01:20:11;100456.13;;;16.57;100.00
65190;BME280;51777;53.570;9.984;2023-08-06T01:22:36;100462.41;;;16.63;100.00
65190;BME280;51777;53.570;9.984;2023-08-06T01:25:02;100451.13;;;16.56;100.00
65190;BME280;51777;53.570;9.984;2023-08-06T01:27:49;100444.06;;;16.50;100.00
65190;BME280;51777;53.570;9.984;2023-08-06T01:30:25;100444.47;;;16.53;100.00
65190;BME280;51777;53.570;9.984;2023-08-06T01:32:58;100436.13;;;16.64;100.00
65190;BME280;51777;53.570;9.984;2023-08-06T01:35:25;100440.97;;;16.67;100.00
65190;BME280;51777;53.570;9.984;2023-08-06T01:37:52;100438.59;;;16.72;100.00
65190;BME280;51777;53.570;9.984;2023-08-06T01:40:17;100443.44;;;16.76;100.00
65190;BME280;51777;53.570;9.984;2023-08-06T01:42:43;100440.44;;;16.79;100.00
65190;BME280;51777;53.570;9.984;2023-08-06T01:45:09;100434.41;;;16.78;100.00
65190;BME280;51777;53.570;9.984;2023-08-06T01:47:35;100436.03;;;16.79;100.00
65190;BME280;51777;53.570;9.984;2023-08-06T01:50:01;100427.00;;;16.82;100.00
65190;BME280;51777;53.570;9.984;2023-08-06T01:52:27;100422.16;;;16.79;100.00
65190;BME280;51777;53.570;9.984;2023-08-06T01:54:53;100415.72;;;16.75;100.00
65190;BME280;51777;53.570;9.984;2023-08-06T01:57:18;100419.75;;;16.77;100.00
65190;BME280;51777;53.570;9.984;2023-08-06T01:59:44;100413.31;;;16.80;100.00
65190;BME280;51777;53.570;9.984;2023-08-06T02:02:10;100418.56;;;16.86;100.00
65190;BME280;51777;53.570;9.984;2023-08-06T02:04:37;100409.66;;;16.74;100.00
65190;BME280;51777;53.570;9.984;2023-08-06T02:07:03;100408.50;;;16.83;100.00
65190;BME280;51777;53.570;9.984;2023-08-06T02:09:31;100412.94;;;16.83;100.00
65190;BME280;51777;53.570;9.984;2023-08-06T02:11:56;100413.44;;;16.65;100.00
65190;BME280;51777;53.570;9.984;2023-08-06T02:14:22;100406.84;;;16.69;100.00
65190;BME280;51777;53.570;9.984;2023-08-06T02:16:47;100410.06;;;16.71;100.00
65190;BME280;51777;53.570;9.984;2023-08-06T02:19:14;100406.88;;;16.48;100.00
65190;BME280;51777;53.570;9.984;2023-08-06T02:21:39;100396.09;;;16.51;100.00
65190;BME280;51777;53.570;9.984;2023-08-06T02:24:05;100402.06;;;16.44;100.00
65190;BME280;51777;53.570;9.984;2023-08-06T02:26:30;100396.84;;;16.44;100.00
65190;BME280;51777;53.570;9.984;2023-08-06T02:28:55;100396.22;;;16.42;100.00
65190;BME280;51777;53.570;9.984;2023-08-06T02:31:21;100391.88;;;16.50;100.00
65190;BME280;51777;53.570;9.984;2023-08-06T02:33:47;100399.69;;;16.50;100.00
65190;BME280;51777;53.570;9.984;2023-08-06T02:36:13;100388.78;;;16.39;100.00
65190;BME280;51777;53.570;9.984;2023-08-06T02:38:38;100383.56;;;16.39;100.00
65190;BME280;51777;53.570;9.984;2023-08-06T02:41:04;100380.38;;;16.44;100.00
65190;BME280;51777;53.570;9.984;2023-08-06T02:43:30;100378.16;;;16.41;100.00
65190;BME280;51777;53.570;9.984;2023-08-06T02:45:59;100374.94;;;16.39;100.00
65190;BME280;51777;53.570;9.984;2023-08-06T02:48:25;100376.22;;;16.50;100.00
65190;BME280;51777;53.570;9.984;2023-08-06T02:50:50;100378.63;;;16.58;100.00
65190;BME280;51777;53.570;9.984;2023-08-06T02:53:15;100373.41;;;16.51;100.00
65190;BME280;51777;53.570;9.984;2023-08-06T02:55:48;100364.31;;;16.40;100.00
65190;BME280;51777;53.570;9.984;2023-08-06T02:58:16;100369.75;;;16.45;100.00
65190;BME280;51777;53.570;9.984;2023-08-06T03:00:43;100370.53;;;16.46;100.00
65190;BME280;51777;53.570;9.984;2023-08-06T03:03:09;100364.13;;;16.49;100.00
65190;BME280;51777;53.570;9.984;2023-08-06T03:05:35;100361.22;;;16.30;100.00
65190;BME280;51777;53.570;9.984;2023-08-06T03:08:03;100356.47;;;16.40;100.00
65190;BME280;51777;53.570;9.984;2023-08-06T03:10:28;100359.66;;;16.36;100.00
65190;BME280;51777;53.570;9.984;2023-08-06T03:12:54;100362.44;;;16.34;100.00
65190;BME280;51777;53.570;9.984;2023-08-06T03:15:19;100361.66;;;16.34;100.00
65190;BME280;51777;53.570;9.984;2023-08-06T03:17:45;100362.84;;;16.31;100.00
65190;BME280;51777;53.570;9.984;2023-08-06T03:20:10;100352.41;;;16.31;100.00
65190;BME280;51777;53.570;9.984;2023-08-06T03:22:36;100363.44;;;16.33;100.00
65190;BME280;51777;53.570;9.984;2023-08-06T03:25:01;100363.22;;;16.28;100.00
65190;BME280;51777;53.570;9.984;2023-08-06T03:27:27;100359.84;;;16.34;100.00
65190;BME280;51777;53.570;9.984;2023-08-06T03:29:52;100358.47;;;16.38;100.00
65190;BME280;51777;53.570;9.984;2023-08-06T03:32:18;100358.88;;;16.42;100.00
65190;BME280;51777;53.570;9.984;2023-08-06T03:34:46;100351.47;;;16.45;100.00
65190;BME280;51777;53.570;9.984;2023-08-06T03:37:12;100354.88;;;16.39;100.00
65190;BME280;51777;53.570;9.984;2023-08-06T03:39:37;100341.84;;;16.46;100.00
65190;BME280;51777;53.570;9.984;2023-08-06T03:42:03;100338.63;;;16.44;100.00
65190;BME280;51777;53.570;9.984;2023-08-06T03:44:34;100349.66;;;16.39;100.00
65190;BME280;51777;53.570;9.984;2023-08-06T03:47:00;100333.56;;;16.36;100.00
65190;BME280;51777;53.570;9.984;2023-08-06T03:49:25;100335.22;;;16.43;100.00
65190;BME280;51777;53.570;9.984;2023-08-06T03:51:50;100336.63;;;16.46;100.00
65190;BME280;51777;53.570;9.984;2023-08-06T03:54:16;100341.84;;;16.46;100.00
65190;BME280;51777;53.570;9.984;2023-08-06T03:56:41;100339.44;;;16.44;100.00
65190;BME280;51777;53.570;9.984;2023-08-06T03:59:07;100341.03;;;16.45;100.00
65190;BME280;51777;53.570;9.984;2023-08-06T04:01:32;100341.44;;;16.42;100.00
65190;BME280;51777;53.570;9.984;2023-08-06T04:03:57;100336.63;;;16.46;100.00
65190;BME280;51777;53.570;9.984;2023-08-06T04:06:23;100332.34;;;16.32;100.00
65190;BME280;51777;53.570;9.984;2023-08-06T04:08:48;100330.88;;;16.23;100.00
65190;BME280;51777;53.570;9.984;2023-08-06T04:11:13;100332.72;;;16.29;100.00
65190;BME280;51777;53.570;9.984;2023-08-06T04:13:42;100328.28;;;16.23;100.00
65190;BME280;51777;53.570;9.984;2023-08-06T04:16:08;100333.53;;;16.29;100.00
65190;BME280;51777;53.570;9.984;2023-08-06T04:18:33;100336.72;;;16.25;100.00
65190;BME280;51777;53.570;9.984;2023-08-06T04:20:58;100335.06;;;16.17;100.00
65190;BME280;51777;53.570;9.984;2023-08-06T04:23:24;100333.78;;;16.06;100.00
65190;BME280;51777;53.570;9.984;2023-08-06T04:25:49;100333.41;;;16.09;100.00
65190;BME280;51777;53.570;9.984;2023-08-06T04:28:15;100333.38;;;16.03;100.00
65190;BME280;51777;53.570;9.984;2023-08-06T04:30:40;100333.75;;;16.00;100.00
65190;BME280;51777;53.570;9.984;2023-08-06T04:33:06;100335.31;;;15.94;100.00
65190;BME280;51777;53.570;9.984;2023-08-06T04:35:31;100336.91;;;15.89;100.00
65190;BME280;51777;53.570;9.984;2023-08-06T04:37:56;100341.47;;;15.86;100.00
65190;BME280;51777;53.570;9.984;2023-08-06T04:40:22;100334.50;;;15.94;100.00
65190;BME280;51777;53.570;9.984;2023-08-06T04:42:47;100339.59;;;16.02;100.00
65190;BME280;51777;53.570;9.984;2023-08-06T04:45:13;100337.00;;;16.02;100.00
65190;BME280;51777;53.570;9.984;2023-08-06T04:47:39;100326.91;;;15.99;100.00
65190;BME280;51777;53.570;9.984;2023-08-06T04:50:05;100330.97;;;16.01;100.00
65190;BME280;51777;53.570;9.984;2023-08-06T04:52:30;100327.16;;;16.04;100.00
65190;BME280;51777;53.570;9.984;2023-08-06T04:54:57;100333.28;;;15.90;100.00
65190;BME280;51777;53.570;9.984;2023-08-06T04:57:23;100331.03;;;15.86;100.00
65190;BME280;51777;53.570;9.984;2023-08-06T04:59:48;100333.63;;;15.80;100.00
65190;BME280;51777;53.570;9.984;2023-08-06T05:02:14;100335.63;;;15.78;100.00
65190;BME280;51777;53.570;9.984;2023-08-06T05:04:39;100328.22;;;15.81;100.00
65190;BME280;51777;53.570;9.984;2023-08-06T05:07:05;100341.63;;;15.78;100.00
65190;BME280;51777;53.570;9.984;2023-08-06T05:09:31;100340.81;;;15.78;100.00
65190;BME280;51777;53.570;9.984;2023-08-06T05:11:56;100345.03;;;15.79;100.00
65190;BME280;51777;53.570;9.984;2023-08-06T05:14:22;100335.16;;;15.74;100.00
65190;BME280;51777;53.570;9.984;2023-08-06T05:16:47;100336.75;;;15.69;100.00
65190;BME280;51777;53.570;9.984;2023-08-06T05:19:13;100334.31;;;15.67;100.00
65190;BME280;51777;53.570;9.984;2023-08-06T05:21:38;100333.09;;;15.63;100.00
65190;BME280;51777;53.570;9.984;2023-08-06T05:24:03;100342.22;;;15.59;100.00
65190;BME280;51777;53.570;9.984;2023-08-06T05:26:29;100342.53;;;15.64;100.00
65190;BME280;51777;53.570;9.984;2023-08-06T05:28:54;100337.13;;;15.66;100.00
65190;BME280;51777;53.570;9.984;2023-08-06T05:31:20;100334.94;;;15.69;100.00
65190;BME280;51777;53.570;9.984;2023-08-06T05:33:45;100334.44;;;15.80;100.00
65190;BME280;51777;53.570;9.984;2023-08-06T05:36:10;100336.31;;;15.93;100.00
65190;BME280;51777;53.570;9.984;2023-08-06T05:38:36;100332.53;;;15.96;100.00
65190;BME280;51777;53.570;9.984;2023-08-06T05:41:01;100330.16;;;16.01;100.00
65190;BME280;51777;53.570;9.984;2023-08-06T05:43:26;100336.69;;;16.18;100.00
65190;BME280;51777;53.570;9.984;2023-08-06T05:45:52;100337.16;;;16.28;100.00
65190;BME280;51777;53.570;9.984;2023-08-06T05:48:17;100336.16;;;16.29;100.00
65190;BME280;51777;53.570;9.984;2023-08-06T05:50:43;100330.59;;;16.11;100.00
65190;BME280;51777;53.570;9.984;2023-08-06T05:53:08;100329.47;;;16.20;100.00
65190;BME280;51777;53.570;9.984;2023-08-06T05:55:34;100327.47;;;16.22;100.00
65190;BME280;51777;53.570;9.984;2023-08-06T05:57:59;100322.50;;;16.34;100.00
65190;BME280;51777;53.570;9.984;2023-08-06T06:00:25;100315.13;;;16.44;100.00
65190;BME280;51777;53.570;9.984;2023-08-06T06:02:50;100316.78;;;16.52;100.00
65190;BME280;51777;53.570;9.984;2023-08-06T06:05:16;100315.13;;;16.44;100.00
65190;BME280;51777;53.570;9.984;2023-08-06T06:07:41;100324.78;;;16.43;100.00
65190;BME280;51777;53.570;9.984;2023-08-06T06:10:07;100322.19;;;16.50;100.00
65190;BME280;51777;53.570;9.984;2023-08-06T06:12:33;100322.00;;;16.52;100.00
65190;BME280;51777;53.570;9.984;2023-08-06T06:14:58;100331.59;;;16.44;100.00
65190;BME280;51777;53.570;9.984;2023-08-06T06:17:26;100327.13;;;16.32;100.00
65190;BME280;51777;53.570;9.984;2023-08-06T06:19:51;100327.72;;;16.27;100.00
65190;BME280;51777;53.570;9.984;2023-08-06T06:22:17;100335.75;;;16.32;100.00
65190;BME280;51777;53.570;9.984;2023-08-06T06:24:42;100329.13;;;16.36;100.00
65190;BME280;51777;53.570;9.984;2023-08-06T06:27:08;100328.78;;;16.39;100.00
65190;BME280;51777;53.570;9.984;2023-08-06T06:29:33;100320.72;;;16.34;100.00
65190;BME280;51777;53.570;9.984;2023-08-06T06:31:58;100314.88;;;16.32;100.00
65190;BME280;51777;53.570;9.984;2023-08-06T06:34:24;100323.16;;;16.42;100.00
65190;BME280;51777;53.570;9.984;2023-08-06T06:36:49;100321.41;;;16.50;100.00
65190;BME280;51777;53.570;9.984;2023-08-06T06:39:15;100315.22;;;16.64;100.00
65190;BME280;51777;53.570;9.984;2023-08-06T06:41:41;100311.28;;;16.75;100.00
65190;BME280;51777;53.570;9.984;2023-08-06T06:44:06;100317.13;;;16.77;100.00
65190;BME280;51777;53.570;9.984;2023-08-06T06:46:32;100316.91;;;16.78;100.00
65190;BME280;51777;53.570;9.984;2023-08-06T06:48:57;100311.34;;;17.08;100.00
65190;BME280;51777;53.570;9.984;2023-08-06T06:51:23;100316.78;;;17.19;100.00
65190;BME280;51777;53.570;9.984;2023-08-06T06:53:48;100323.25;;;17.30;100.00
65190;BME280;51777;53.570;9.984;2023-08-06T06:56:13;100314.22;;;17.39;100.00
65190;BME280;51777;53.570;9.984;2023-08-06T06:58:39;100312.41;;;17.53;100.00
65190;BME280;51777;53.570;9.984;2023-08-06T07:01:06;100318.22;;;17.68;100.00
65190;BME280;51777;53.570;9.984;2023-08-06T07:03:32;100319.66;;;17.84;100.00
65190;BME280;51777;53.570;9.984;2023-08-06T07:05:58;100320.25;;;17.93;100.00
65190;BME280;51777;53.570;9.984;2023-08-06T07:08:26;100317.81;;;18.04;100.00
65190;BME280;51777;53.570;9.984;2023-08-06T07:10:59;100321.47;;;17.77;100.00
65190;BME280;51777;53.570;9.984;2023-08-06T07:13:25;100326.31;;;17.80;100.00
65190;BME280;51777;53.570;9.984;2023-08-06T07:15:51;100324.66;;;17.85;100.00
65190;BME280;51777;53.570;9.984;2023-08-06T07:18:16;100320.25;;;17.99;100.00
65190;BME280;51777;53.570;9.984;2023-08-06T07:20:41;100324.41;;;18.20;100.00
65190;BME280;51777;53.570;9.984;2023-08-06T07:23:07;100326.97;;;18.40;100.00
65190;BME280;51777;53.570;9.984;2023-08-06T07:25:32;100331.38;;;18.53;100.00
65190;BME280;51777;53.570;9.984;2023-08-06T07:27:57;100325.50;;;18.57;100.00
65190;BME280;51777;53.570;9.984;2023-08-06T07:30:23;100318.03;;;18.74;100.00
65190;BME280;51777;53.570;9.984;2023-08-06T07:32:48;100323.31;;;18.54;100.00
65190;BME280;51777;53.570;9.984;2023-08-06T07:35:14;100314.59;;;18.73;100.00
65190;BME280;51777;53.570;9.984;2023-08-06T07:37:39;100331.94;;;19.06;100.00
65190;BME280;51777;53.570;9.984;2023-08-06T07:40:06;100322.44;;;18.73;100.00
65190;BME280;51777;53.570;9.984;2023-08-06T07:42:31;100333.81;;;18.99;100.00
65190;BME280;51777;53.570;9.984;2023-08-06T07:44:58;100338.28;;;19.23;100.00
65190;BME280;51777;53.570;9.984;2023-08-06T07:47:24;100344.72;;;19.27;100.00
65190;BME280;51777;53.570;9.984;2023-08-06T07:49:49;100333.31;;;19.40;100.00
65190;BME280;51777;53.570;9.984;2023-08-06T07:52:14;100336.25;;;18.94;100.00
65190;BME280;51777;53.570;9.984;2023-08-06T07:54:40;100335.44;;;18.93;100.00
65190;BME280;51777;53.570;9.984;2023-08-06T07:57:06;100336.59;;;19.04;100.00
65190;BME280;51777;53.570;9.984;2023-08-06T07:59:31;100328.69;;;19.11;100.00
65190;BME280;51777;53.570;9.984;2023-08-06T08:01:57;100326.69;;;19.06;100.00
65190;BME280;51777;53.570;9.984;2023-08-06T08:04:23;100332.41;;;19.28;100.00
65190;BME280;51777;53.570;9.984;2023-08-06T08:06:49;100330.16;;;19.00;100.00
65190;BME280;51777;53.570;9.984;2023-08-06T08:09:14;100328.69;;;19.11;100.00
65190;BME280;51777;53.570;9.984;2023-08-06T08:11:40;100328.41;;;19.25;100.00
65190;BME280;51777;53.570;9.984;2023-08-06T08:14:06;100323.91;;;19.01;100.00
65190;BME280;51777;53.570;9.984;2023-08-06T08:16:31;100322.91;;;18.95;100.00
65190;BME280;51777;53.570;9.984;2023-08-06T08:18:57;100326.88;;;19.11;100.00
65190;BME280;51777;53.570;9.984;2023-08-06T08:21:23;100321.66;;;19.04;100.00
65190;BME280;51777;53.570;9.984;2023-08-06T08:23:51;100319.09;;;18.98;100.00
65190;BME280;51777;53.570;9.984;2023-08-06T08:26:17;100320.72;;;18.99;100.00
65190;BME280;51777;53.570;9.984;2023-08-06T08:28:43;100322.13;;;19.26;100.00
65190;BME280;51777;53.570;9.984;2023-08-06T08:31:09;100319.31;;;19.53;100.00
65190;BME280;51777;53.570;9.984;2023-08-06T08:33:34;100318.84;;;19.38;100.00
65190;BME280;51777;53.570;9.984;2023-08-06T08:36:00;100318.53;;;19.77;100.00
65190;BME280;51777;53.570;9.984;2023-08-06T08:38:25;100318.41;;;19.90;100.00
65190;BME280;51777;53.570;9.984;2023-08-06T08:40:52;100319.56;;;19.94;100.00
65190;BME280;51777;53.570;9.984;2023-08-06T08:43:20;100324.59;;;19.96;100.00
65190;BME280;51777;53.570;9.984;2023-08-06T08:45:49;100316.34;;;19.74;100.00
65190;BME280;51777;53.570;9.984;2023-08-06T08:48:16;100315.75;;;19.72;100.00
65190;BME280;51777;53.570;9.984;2023-08-06T08:50:44;100320.13;;;19.97;100.00
65190;BME280;51777;53.570;9.984;2023-08-06T08:53:11;100320.66;;;20.05;100.00
65190;BME280;51777;53.570;9.984;2023-08-06T08:55:38;100314.19;;;20.08;100.00
65190;BME280;51777;53.570;9.984;2023-08-06T08:58:04;100311.84;;;20.00;100.00
65190;BME280;51777;53.570;9.984;2023-08-06T09:00:29;100315.38;;;20.12;100.00
65190;BME280;51777;53.570;9.984;2023-08-06T09:02:55;100315.78;;;20.27;100.00
65190;BME280;51777;53.570;9.984;2023-08-06T09:05:23;100309.97;;;20.25;100.00
65190;BME280;51777;53.570;9.984;2023-08-06T09:07:52;100310.13;;;20.12;100.00
65190;BME280;51777;53.570;9.984;2023-08-06T09:10:19;100313.47;;;20.01;100.00
65190;BME280;51777;53.570;9.984;2023-08-06T09:12:48;100310.59;;;19.59;100.00
65190;BME280;51777;53.570;9.984;2023-08-06T09:15:16;100313.22;;;19.59;100.00
65190;BME280;51777;53.570;9.984;2023-08-06T09:17:41;100305.03;;;19.49;100.00
65190;BME280;51777;53.570;9.984;2023-08-06T09:20:13;100321.09;;;19.59;100.00
65190;BME280;51777;53.570;9.984;2023-08-06T09:22:39;100316.09;;;19.26;100.00
65190;BME280;51777;53.570;9.984;2023-08-06T09:25:06;100317.69;;;18.95;100.00
65190;BME280;51777;53.570;9.984;2023-08-06T09:27:38;100324.63;;;19.15;100.00
65190;BME280;51777;53.570;9.984;2023-08-06T09:30:05;100318.59;;;19.14;100.00
65190;BME280;51777;53.570;9.984;2023-08-06T09:32:48;100320.91;;;19.29;100.00
65190;BME280;51777;53.570;9.984;2023-08-06T09:35:18;100314.22;;;19.33;100.00
65190;BME280;51777;53.570;9.984;2023-08-06T09:37:44;100320.25;;;19.33;100.00
65190;BME280;51777;53.570;9.984;2023-08-06T09:40:30;100314.00;;;19.34;100.00
65190;BME280;51777;53.570;9.984;2023-08-06T09:42:56;100326.41;;;19.46;100.00
65190;BME280;51777;53.570;9.984;2023-08-06T09:45:22;100326.78;;;19.56;100.00
65190;BME280;51777;53.570;9.984;2023-08-06T09:47:49;100329.97;;;19.58;100.00
65190;BME280;51777;53.570;9.984;2023-08-06T09:50:17;100321.31;;;19.57;100.00
65190;BME280;51777;53.570;9.984;2023-08-06T09:52:43;100321.09;;;19.59;100.00
65190;BME280;51777;53.570;9.984;2023-08-06T09:55:11;100321.00;;;19.72;100.00
65190;BME280;51777;53.570;9.984;2023-08-06T09:57:37;100326.13;;;19.85;100.00
65190;BME280;51777;53.570;9.984;2023-08-06T10:00:03;100323.59;;;19.97;100.00
65190;BME280;51777;53.570;9.984;2023-08-06T10:02:32;100317.72;;;19.52;100.00
65190;BME280;51777;53.570;9.984;2023-08-06T10:04:58;100320.28;;;19.58;100.00
65190;BME280;51777;53.570;9.984;2023-08-06T10:07:24;100314.44;;;19.81;100.00
65190;BME280;51777;53.570;9.984;2023-08-06T10:09:50;100324.53;;;19.84;100.00
65190;BME280;51777;53.570;9.984;2023-08-06T10:12:15;100317.09;;;19.56;100.00
65190;BME280;51777;53.570;9.984;2023-08-06T10:14:43;100315.94;;;19.71;100.00
65190;BME280;51777;53.570;9.984;2023-08-06T10:17:09;100314.84;;;19.85;100.00
65190;BME280;51777;53.570;9.984;2023-08-06T10:19:36;100315.91;;;19.95;100.00
65190;BME280;51777;53.570;9.984;2023-08-06T10:22:08;100313.03;;;19.60;100.00
65190;BME280;51777;53.570;9.984;2023-08-06T10:24:55;100312.56;;;19.39;100.00
65190;BME280;51777;53.570;9.984;2023-08-06T10:27:33;100305.88;;;19.43;100.00
65190;BME280;51777;53.570;9.984;2023-08-06T10:30:21;100304.47;;;19.15;100.00
65190;BME280;51777;53.570;9.984;2023-08-06T10:32:47;100300.72;;;19.29;100.00
65190;BME280;51777;53.570;9.984;2023-08-06T10:40:28;100297.53;;;19.52;100.00
65190;BME280;51777;53.570;9.984;2023-08-06T10:42:59;100296.28;;;19.80;100.00
65190;BME280;51777;53.570;9.984;2023-08-06T10:45:25;100298.31;;;19.28;100.00
65190;BME280;51777;53.570;9.984;2023-08-06T10:47:54;100294.69;;;19.29;100.00
65190;BME280;51777;53.570;9.984;2023-08-06T10:50:21;100301.22;;;19.45;100.00
65190;BME280;51777;53.570;9.984;2023-08-06T10:52:47;100298.13;;;19.54;100.00
65190;BME280;51777;53.570;9.984;2023-08-06T10:55:13;100294.16;;;19.70;100.00
65190;BME280;51777;53.570;9.984;2023-08-06T10:57:39;100291.84;;;19.80;100.00
65190;BME280;51777;53.570;9.984;2023-08-06T11:00:06;100288.22;;;19.56;100.00
65190;BME280;51777;53.570;9.984;2023-08-06T11:02:38;100285.66;;;19.50;100.00
65190;BME280;51777;53.570;9.984;2023-08-06T11:05:10;100282.44;;;19.48;100.00
65190;BME280;51777;53.570;9.984;2023-08-06T11:07:37;100269.63;;;19.08;100.00
65190;BME280;51777;53.570;9.984;2023-08-06T11:10:08;100279.19;;;18.96;100.00
65190;BME280;51777;53.570;9.984;2023-08-06T11:12:35;100270.38;;;18.90;100.00
65190;BME280;51777;53.570;9.984;2023-08-06T11:15:01;100273.88;;;18.77;100.00
65190;BME280;51777;53.570;9.984;2023-08-06T11:17:28;100268.25;;;19.05;100.00
65190;BME280;51777;53.570;9.984;2023-08-06T11:19:54;100268.13;;;18.94;100.00
65190;BME280;51777;53.570;9.984;2023-08-06T11:22:23;100263.44;;;19.27;100.00
65190;BME280;51777;53.570;9.984;2023-08-06T11:24:48;100262.16;;;19.36;100.00
65190;BME280;51777;53.570;9.984;2023-08-06T11:27:15;100264.19;;;19.59;100.00
65190;BME280;51777;53.570;9.984;2023-08-06T11:29:42;100265.38;;;19.63;100.00
65190;BME280;51777;53.570;9.984;2023-08-06T11:32:08;100261.25;;;19.74;100.00
65190;BME280;51777;53.570;9.984;2023-08-06T11:34:34;100261.16;;;19.81;100.00
65190;BME280;51777;53.570;9.984;2023-08-06T11:37:00;100266.34;;;19.87;100.00
65190;BME280;51777;53.570;9.984;2023-08-06T11:39:25;100268.81;;;19.82;100.00
65190;BME280;51777;53.570;9.984;2023-08-06T11:41:51;100266.31;;;19.69;100.00
65190;BME280;51777;53.570;9.984;2023-08-06T11:44:19;100266.50;;;19.74;100.00
65190;BME280;51777;53.570;9.984;2023-08-06T11:46:52;100269.00;;;19.38;100.00
65190;BME280;51777;53.570;9.984;2023-08-06T11:49:18;100270.66;;;19.07;100.00
65190;BME280;51777;53.570;9.984;2023-08-06T11:51:47;100268.09;;;19.25;100.00
65190;BME280;51777;53.570;9.984;2023-08-06T11:54:13;100263.38;;;19.09;100.00
65190;BME280;51777;53.570;9.984;2023-08-06T11:56:38;100262.97;;;19.12;100.00
65190;BME280;51777;53.570;9.984;2023-08-06T11:59:03;100263.88;;;19.24;100.00
65190;BME280;51777;53.570;9.984;2023-08-06T12:01:29;100254.59;;;18.97;100.00
65190;BME280;51777;53.570;9.984;2023-08-06T12:04:01;100264.41;;;18.76;100.00
65190;BME280;51777;53.570;9.984;2023-08-06T12:06:29;100254.09;;;18.82;100.00
65190;BME280;51777;53.570;9.984;2023-08-06T12:08:54;100258.06;;;18.91;100.00
65190;BME280;51777;53.570;9.984;2023-08-06T12:11:23;100258.13;;;19.09;100.00
65190;BME280;51777;53.570;9.984;2023-08-06T12:13:52;100257.69;;;18.87;100.00
65190;BME280;51777;53.570;9.984;2023-08-06T12:16:17;100253.38;;;18.99;100.00
65190;BME280;51777;53.570;9.984;2023-08-06T12:18:44;100244.88;;;19.04;100.00
65190;BME280;51777;53.570;9.984;2023-08-06T12:21:10;100244.34;;;19.20;100.00
65190;BME280;51777;53.570;9.984;2023-08-06T12:23:35;100250.34;;;19.27;100.00
65190;BME280;51777;53.570;9.984;2023-08-06T12:26:01;100250.66;;;19.38;100.00
65190;BME280;51777;53.570;9.984;2023-08-06T12:28:27;100246.81;;;19.40;100.00
65190;BME280;51777;53.570;9.984;2023-08-06T12:30:52;100248.72;;;19.51;100.00
65190;BME280;51777;53.570;9.984;2023-08-06T12:33:20;100234.81;;;19.51;100.00
65190;BME280;51777;53.570;9.984;2023-08-06T12:35:45;100246.66;;;19.35;100.00
65190;BME280;51777;53.570;9.984;2023-08-06T12:38:11;100245.19;;;19.39;100.00
65190;BME280;51777;53.570;9.984;2023-08-06T12:40:36;100246.91;;;19.52;100.00
65190;BME280;51777;53.570;9.984;2023-08-06T12:43:02;100241.59;;;19.58;100.00
65190;BME280;51777;53.570;9.984;2023-08-06T12:45:27;100233.41;;;19.73;100.00